createdAt,value
2022-12-11T00:01:19.445Z,-12.56
2022-12-11T00:03:48.685Z,-13.17
2022-12-11T00:06:20.703Z,-12.97
2022-12-11T00:08:54.196Z,-12.61
2022-12-11T00:11:24.444Z,-12.54
2022-12-11T00:13:53.087Z,-12.55
2022-12-11T00:16:26.754Z,-12.53
2022-12-11T00:18:56.288Z,-12.66
2022-12-11T00:21:24.935Z,-12.57
2022-12-11T00:23:53.775Z,-12.50
2022-12-11T00:26:22.447Z,-12.46
2022-12-11T00:28:58.273Z,-12.50
2022-12-11T00:31:27.710Z,-12.54
2022-12-11T00:33:56.328Z,-12.52
2022-12-11T00:36:27.567Z,-12.58
2022-12-11T00:38:56.406Z,-12.58
2022-12-11T00:41:25.448Z,-12.60
2022-12-11T00:43:54.151Z,-12.54
2022-12-11T00:46:23.021Z,-12.52
2022-12-11T00:48:51.960Z,-12.49
2022-12-11T00:51:20.872Z,-12.58
2022-12-11T00:53:49.710Z,-12.53
2022-12-11T00:56:21.538Z,-12.67
2022-12-11T00:58:50.789Z,-12.70
2022-12-11T01:01:25.236Z,-12.54
2022-12-11T01:03:54.878Z,-12.37
2022-12-11T01:06:26.620Z,-12.47
2022-12-11T01:09:14.252Z,-12.41
2022-12-11T01:11:44.397Z,-12.56
2022-12-11T01:14:13.524Z,-12.36
2022-12-11T01:16:42.523Z,-12.56
2022-12-11T01:19:11.943Z,-12.31
2022-12-11T01:21:40.684Z,-12.34
2022-12-11T01:24:09.754Z,-12.52
2022-12-11T01:26:38.437Z,-12.41
2022-12-11T01:29:06.910Z,-12.39
2022-12-11T01:31:35.741Z,-12.27
2022-12-11T01:34:04.955Z,-12.32
2022-12-11T01:36:33.699Z,-12.48
2022-12-11T01:39:03.092Z,-12.38
2022-12-11T01:41:32.083Z,-12.26
2022-12-11T01:44:05.402Z,-12.25
2022-12-11T01:46:36.894Z,-12.25
2022-12-11T01:49:10.168Z,-12.37
2022-12-11T01:51:49.594Z,-12.24
2022-12-11T01:54:20.378Z,-12.36
2022-12-11T01:56:50.821Z,-12.26
2022-12-11T01:59:25.503Z,-12.34
2022-12-11T02:02:27.346Z,-12.22
2022-12-11T02:04:56.350Z,-12.38
2022-12-11T02:07:25.345Z,-12.31
2022-12-11T02:09:54.228Z,-12.29
2022-12-11T02:12:37.346Z,-12.13
2022-12-11T02:15:24.437Z,-12.13
2022-12-11T02:18:20.522Z,-12.13
2022-12-11T02:21:14.690Z,-12.13
2022-12-11T02:24:02.320Z,-12.17
2022-12-11T02:26:43.805Z,-12.29
2022-12-11T02:29:20.963Z,-12.30
2022-12-11T02:34:41.163Z,-12.43
2022-12-11T02:37:17.642Z,-12.77
2022-12-11T02:39:47.544Z,-12.52
2022-12-11T02:42:17.482Z,-12.39
2022-12-11T02:44:49.242Z,-12.26
2022-12-11T02:47:21.155Z,-12.31
2022-12-11T02:49:51.282Z,-12.40
2022-12-11T02:52:24.564Z,-12.36
2022-12-11T02:54:57.643Z,-12.19
2022-12-11T02:57:36.312Z,-12.26
2022-12-11T03:00:05.990Z,-12.23
2022-12-11T03:02:34.609Z,-12.16
2022-12-11T03:05:06.362Z,-12.22
2022-12-11T03:07:38.925Z,-12.09
2022-12-11T03:10:10.095Z,-12.16
2022-12-11T03:12:41.440Z,-12.10
2022-12-11T03:15:14.852Z,-12.05
2022-12-11T03:17:57.716Z,-12.07
2022-12-11T03:20:44.483Z,-12.05
2022-12-11T03:23:29.283Z,-12.12
2022-12-11T03:25:59.763Z,-12.14
2022-12-11T03:29:00.603Z,-12.06
2022-12-11T03:31:46.374Z,-12.07
2022-12-11T03:34:24.297Z,-12.05
2022-12-11T03:36:54.553Z,-12.04
2022-12-11T03:39:30.398Z,-12.09
2022-12-11T03:42:04.129Z,-12.13
2022-12-11T03:44:34.386Z,-12.12
2022-12-11T03:47:06.932Z,-12.07
2022-12-11T03:49:43.834Z,-12.09
2022-12-11T03:52:15.490Z,-11.99
2022-12-11T03:54:49.875Z,-11.89
2022-12-11T03:57:23.142Z,-12.02
2022-12-11T03:59:51.794Z,-12.00
2022-12-11T04:02:20.327Z,-11.97
2022-12-11T04:04:48.969Z,-11.95
2022-12-11T04:07:17.752Z,-12.28
2022-12-11T04:09:47.376Z,-11.88
2022-12-11T04:12:16.014Z,-11.87
2022-12-11T04:15:05.007Z,-11.75
2022-12-11T04:17:54.627Z,-11.79
2022-12-11T04:20:41.764Z,-11.66
2022-12-11T04:23:34.309Z,-11.73
2022-12-11T04:26:10.234Z,-11.54
2022-12-11T04:28:39.717Z,-11.68
2022-12-11T04:31:12.771Z,-11.57
2022-12-11T04:33:41.538Z,-11.46
2022-12-11T04:36:11.417Z,-11.49
2022-12-11T04:38:40.234Z,-11.36
2022-12-11T04:41:12.546Z,-11.33
2022-12-11T04:43:41.953Z,-11.40
2022-12-11T04:46:16.729Z,-11.32
2022-12-11T04:48:46.238Z,-11.54
2022-12-11T04:51:15.467Z,-11.31
2022-12-11T04:53:44.501Z,-11.09
2022-12-11T04:56:15.350Z,-11.06
2022-12-11T04:58:44.959Z,-11.66
2022-12-11T05:01:17.784Z,-11.12
2022-12-11T05:03:46.875Z,-10.95
2022-12-11T05:06:16.236Z,-10.99
2022-12-11T05:08:46.024Z,-11.04
2022-12-11T05:11:20.929Z,-10.86
2022-12-11T05:13:49.850Z,-10.85
2022-12-11T05:16:18.799Z,-10.71
2022-12-11T05:18:48.260Z,-11.18
2022-12-11T05:21:17.240Z,-10.71
2022-12-11T05:23:45.843Z,-10.70
2022-12-11T05:26:20.584Z,-10.67
2022-12-11T05:28:54.079Z,-10.71
2022-12-11T05:31:26.206Z,-10.69
2022-12-11T05:33:55.319Z,-11.00
2022-12-11T05:36:32.795Z,-10.72
2022-12-11T05:39:03.057Z,-10.47
2022-12-11T05:41:33.535Z,-10.53
2022-12-11T05:44:02.353Z,-10.55
2022-12-11T05:46:32.306Z,-10.42
2022-12-11T05:49:02.742Z,-10.42
2022-12-11T05:51:35.143Z,-10.38
2022-12-11T05:54:04.501Z,-10.35
2022-12-11T05:56:35.336Z,-10.49
2022-12-11T05:59:05.658Z,-10.80
2022-12-11T06:01:40.438Z,-10.29
2022-12-11T06:04:12.122Z,-10.23
2022-12-11T06:06:41.506Z,-10.65
2022-12-11T06:09:15.288Z,-10.34
2022-12-11T06:11:44.234Z,-10.64
2022-12-11T06:14:14.722Z,-10.71
2022-12-11T06:16:44.107Z,-10.38
2022-12-11T06:19:19.262Z,-10.39
2022-12-11T06:21:49.786Z,-10.36
2022-12-11T06:24:18.718Z,-10.38
2022-12-11T06:26:47.756Z,-10.37
2022-12-11T06:29:16.616Z,-10.17
2022-12-11T06:31:45.690Z,-10.39
2022-12-11T06:34:14.918Z,-10.29
2022-12-11T06:36:44.037Z,-10.21
2022-12-11T06:39:13.186Z,-10.15
2022-12-11T06:41:41.947Z,-10.21
2022-12-11T06:44:10.837Z,-10.29
2022-12-11T06:46:39.844Z,-10.63
2022-12-11T06:49:08.995Z,-10.29
2022-12-11T06:51:38.076Z,-10.15
2022-12-11T06:54:06.780Z,-10.12
2022-12-11T06:56:39.285Z,-10.30
2022-12-11T06:59:08.282Z,-10.33
2022-12-11T07:01:37.475Z,-10.38
2022-12-11T07:04:09.220Z,-10.46
2022-12-11T07:06:38.223Z,-10.66
2022-12-11T07:09:07.635Z,-10.56
2022-12-11T07:11:36.744Z,-10.55
2022-12-11T07:14:05.777Z,-10.58
2022-12-11T07:16:34.665Z,-10.48
2022-12-11T07:19:03.999Z,-10.60
2022-12-11T08:50:23.769Z,-9.96
2022-12-11T08:52:54.403Z,-10.18
2022-12-11T08:55:22.969Z,-10.02
2022-12-11T08:57:52.110Z,-10.15
2022-12-11T09:00:20.777Z,-10.06
2022-12-11T09:02:49.636Z,-10.17
2022-12-11T09:05:18.556Z,-10.24
2022-12-11T09:07:47.435Z,-10.36
2022-12-11T09:10:16.319Z,-10.28
2022-12-11T09:12:45.105Z,-10.36
2022-12-11T09:15:13.847Z,-10.75
2022-12-11T09:17:42.719Z,-10.17
2022-12-11T09:20:11.779Z,-10.32
2022-12-11T09:22:40.519Z,-10.33
2022-12-11T09:25:10.549Z,-11.10
2022-12-11T09:27:39.499Z,-10.45
2022-12-11T09:30:09.384Z,-10.88
2022-12-11T09:32:41.515Z,-10.48
2022-12-11T09:35:11.708Z,-10.37
2022-12-11T09:37:40.676Z,-10.63
2022-12-11T09:40:13.034Z,-10.98
2022-12-11T09:42:55.516Z,-10.63
2022-12-11T09:45:24.554Z,-10.61
2022-12-11T09:47:56.741Z,-10.66
2022-12-11T09:50:34.057Z,-10.64
2022-12-11T09:53:31.071Z,-10.52
2022-12-11T09:56:26.919Z,-10.42
2022-12-11T09:59:07.703Z,-10.46
2022-12-11T10:01:42.523Z,-10.52
2022-12-11T10:04:32.981Z,-10.53
2022-12-11T10:07:24.405Z,-10.54
2022-12-11T10:10:23.709Z,-11.13
2022-12-11T10:12:52.612Z,-10.58
2022-12-11T10:15:33.977Z,-10.72
2022-12-11T10:18:05.881Z,-10.59
2022-12-11T10:20:41.150Z,-10.60
2022-12-11T10:23:29.478Z,-10.76
2022-12-11T10:26:12.500Z,-10.61
2022-12-11T10:28:41.617Z,-10.81
2022-12-11T10:31:33.784Z,-10.65
2022-12-11T10:34:13.753Z,-10.64
2022-12-11T10:36:44.298Z,-10.81
2022-12-11T10:39:21.147Z,-10.73
2022-12-11T10:41:55.620Z,-11.15
2022-12-11T10:44:26.409Z,-10.65
2022-12-11T10:47:16.321Z,-10.85
2022-12-11T10:49:57.625Z,-10.80
2022-12-11T10:52:46.381Z,-11.28
2022-12-11T10:55:29.976Z,-10.86
2022-12-11T10:58:06.670Z,-10.70
2022-12-11T11:00:39.673Z,-10.94
2022-12-11T11:03:28.975Z,-10.98
2022-12-11T11:06:05.382Z,-10.77
2022-12-11T11:08:46.248Z,-10.70
2022-12-11T11:11:37.684Z,-10.73
2022-12-11T11:14:17.593Z,-10.71
2022-12-11T11:16:49.458Z,-10.88
2022-12-11T11:19:21.429Z,-10.71
2022-12-11T11:21:54.151Z,-10.73
2022-12-11T11:24:30.981Z,-10.94
2022-12-11T11:27:15.502Z,-10.85
2022-12-11T11:29:50.150Z,-10.70
2022-12-11T11:32:27.713Z,-10.70
2022-12-11T11:35:07.608Z,-10.82
2022-12-11T11:37:36.881Z,-10.71
2022-12-11T11:40:37.652Z,-10.73
2022-12-11T11:43:17.695Z,-10.87
2022-12-11T11:45:55.230Z,-10.70
2022-12-11T11:48:52.027Z,-10.71
2022-12-11T11:51:37.196Z,-11.28
2022-12-11T11:54:31.453Z,-10.68
2022-12-11T11:57:06.314Z,-11.28
2022-12-11T11:59:43.976Z,-10.76
2022-12-11T12:02:18.824Z,-10.89
2022-12-11T12:04:50.087Z,-10.79
2022-12-11T12:07:51.579Z,-10.71
2022-12-11T12:10:43.698Z,-10.80
2022-12-11T12:13:49.199Z,-10.70
2022-12-11T12:16:52.645Z,-10.97
2022-12-11T12:19:57.749Z,-10.71
2022-12-11T12:22:38.473Z,-10.72
2022-12-11T12:25:29.928Z,-10.73
2022-12-11T12:28:26.366Z,-10.72
2022-12-11T12:31:28.122Z,-10.73
2022-12-11T12:34:28.023Z,-10.70
2022-12-11T12:37:33.438Z,-10.79
2022-12-11T12:40:24.303Z,-10.70
2022-12-11T12:43:07.606Z,-10.65
2022-12-11T12:45:52.724Z,-10.68
2022-12-11T12:48:25.603Z,-10.66
2022-12-11T12:50:55.001Z,-10.65
2022-12-11T12:53:33.392Z,-10.78
2022-12-11T12:56:04.274Z,-10.75
2022-12-11T12:58:35.672Z,-10.67
2022-12-11T13:01:29.572Z,-10.69
2022-12-11T13:04:02.976Z,-10.70
2022-12-11T13:06:37.648Z,-10.63
2022-12-11T13:09:20.942Z,-10.64
2022-12-11T13:11:54.481Z,-10.65
2022-12-11T13:14:34.582Z,-10.62
2022-12-11T13:17:21.678Z,-10.63
2022-12-11T13:19:53.807Z,-10.63
2022-12-11T13:22:25.950Z,-10.68
2022-12-11T13:25:00.388Z,-10.67
2022-12-11T13:27:40.220Z,-10.64
2022-12-11T13:30:23.976Z,-10.76
2022-12-11T13:32:55.720Z,-10.67
2022-12-11T13:35:24.532Z,-10.82
2022-12-11T13:37:57.734Z,-11.15
2022-12-11T13:40:31.292Z,-10.66
2022-12-11T13:43:28.699Z,-10.59
2022-12-11T13:46:07.080Z,-10.64
2022-12-11T13:48:54.754Z,-10.60
2022-12-11T13:51:29.033Z,-10.82
2022-12-11T13:54:10.643Z,-10.67
2022-12-11T13:56:42.653Z,-10.61
2022-12-11T13:59:54.071Z,-10.60
2022-12-11T14:02:30.003Z,-10.87
2022-12-11T14:05:02.925Z,-10.64
2022-12-11T14:07:51.568Z,-10.69
2022-12-11T14:10:29.193Z,-10.81
2022-12-11T14:13:00.506Z,-10.52
2022-12-11T14:15:32.415Z,-10.72
2022-12-11T14:18:02.339Z,-10.69
2022-12-11T14:20:34.679Z,-10.54
2022-12-11T14:23:19.895Z,-10.65
2022-12-11T14:26:18.838Z,-10.64
2022-12-11T14:28:47.638Z,-10.68
2022-12-11T14:31:38.445Z,-10.52
2022-12-11T14:34:16.574Z,-10.55
2022-12-11T14:36:47.574Z,-10.69
2022-12-11T14:39:42.131Z,-10.53
2022-12-11T14:42:21.519Z,-10.56
2022-12-11T14:44:58.955Z,-10.72
2022-12-11T14:47:33.552Z,-10.86
2022-12-11T14:50:23.923Z,-10.67
2022-12-11T14:53:00.564Z,-10.76
2022-12-11T14:55:39.330Z,-10.79
2022-12-11T14:58:25.755Z,-10.65
2022-12-11T15:01:28.310Z,-10.54
2022-12-11T15:04:15.782Z,-10.54
2022-12-11T15:06:47.727Z,-10.50
2022-12-11T15:09:31.175Z,-10.72
2022-12-11T15:12:11.531Z,-10.64
2022-12-11T15:15:16.350Z,-10.50
2022-12-11T15:17:51.113Z,-11.11
2022-12-11T15:20:28.740Z,-10.64
2022-12-11T15:23:02.491Z,-10.73
2022-12-11T15:25:31.675Z,-10.57
2022-12-11T15:28:02.255Z,-10.72
2022-12-11T15:30:35.449Z,-10.63
2022-12-11T15:33:13.157Z,-10.41
2022-12-11T15:35:55.334Z,-10.42
2022-12-11T15:38:43.234Z,-10.58
2022-12-11T15:41:17.067Z,-10.60
2022-12-11T15:43:47.047Z,-10.40
2022-12-11T15:46:16.521Z,-10.46
2022-12-11T15:48:45.419Z,-10.55
2022-12-11T15:51:14.659Z,-10.75
2022-12-11T15:53:43.962Z,-10.61
2022-12-11T15:56:19.888Z,-10.50
2022-12-11T15:58:50.486Z,-10.43
2022-12-11T16:01:19.982Z,-10.51
2022-12-11T16:03:50.986Z,-10.52
2022-12-11T16:06:20.056Z,-10.68
2022-12-11T16:08:49.091Z,-10.45
2022-12-11T16:11:18.267Z,-10.51
2022-12-11T16:13:47.795Z,-10.47
2022-12-11T16:16:17.282Z,-10.57
2022-12-11T16:18:47.796Z,-10.63
2022-12-11T16:21:21.212Z,-10.69
2022-12-11T16:23:50.995Z,-10.50
2022-12-11T16:26:19.958Z,-10.68
2022-12-11T16:28:48.867Z,-10.46
2022-12-11T16:31:18.461Z,-10.57
2022-12-11T16:33:48.415Z,-10.52
2022-12-11T16:36:19.670Z,-10.91
2022-12-11T16:38:53.843Z,-10.57
2022-12-11T16:41:24.114Z,-10.83
2022-12-11T16:43:54.433Z,-10.25
2022-12-11T16:46:24.587Z,-10.47
2022-12-11T16:48:53.215Z,-10.22
2022-12-11T16:51:22.100Z,-10.36
2022-12-11T16:53:51.375Z,-10.26
2022-12-11T16:56:20.322Z,-10.41
2022-12-11T16:58:50.117Z,-10.39
2022-12-11T17:01:19.215Z,-10.18
2022-12-11T17:03:48.308Z,-10.27
2022-12-11T17:06:19.176Z,-10.15
2022-12-11T17:08:48.826Z,-11.03
2022-12-11T17:11:20.937Z,-10.24
2022-12-11T17:13:58.011Z,-10.28
2022-12-11T17:16:31.061Z,-10.33
2022-12-11T17:19:00.520Z,-10.39
2022-12-11T17:21:29.159Z,-10.40
2022-12-11T17:23:58.356Z,-10.52
2022-12-11T17:26:29.420Z,-10.30
2022-12-11T17:28:59.525Z,-10.49
2022-12-11T17:31:28.805Z,-10.34
2022-12-11T17:34:01.771Z,-10.56
2022-12-11T17:36:31.240Z,-10.63
2022-12-11T17:39:00.227Z,-10.71
2022-12-11T17:41:29.021Z,-10.57
2022-12-11T17:43:57.628Z,-11.09
2022-12-11T17:46:26.639Z,-11.11
2022-12-11T17:48:55.531Z,-10.67
2022-12-11T17:51:27.017Z,-10.55
2022-12-11T17:53:56.936Z,-10.80
2022-12-11T17:56:26.608Z,-10.91
2022-12-11T17:58:55.939Z,-10.69
2022-12-11T18:01:24.882Z,-10.71
2022-12-11T18:03:54.067Z,-10.84
2022-12-11T18:06:23.823Z,-10.89
2022-12-11T18:08:53.584Z,-10.95
2022-12-11T18:11:23.065Z,-10.79
2022-12-11T18:13:53.412Z,-10.77
2022-12-11T18:16:28.818Z,-10.91
2022-12-11T18:18:57.741Z,-10.99
2022-12-11T18:21:30.259Z,-11.00
2022-12-11T18:23:59.724Z,-11.25
2022-12-11T18:26:29.955Z,-11.24
2022-12-11T18:28:59.284Z,-11.31
2022-12-11T18:31:28.755Z,-11.38
2022-12-11T18:33:58.847Z,-11.35
2022-12-11T18:36:28.640Z,-11.32
2022-12-11T18:38:57.584Z,-11.90
2022-12-11T18:41:27.143Z,-11.52
2022-12-11T18:43:56.222Z,-11.35
2022-12-11T18:46:25.948Z,-11.56
2022-12-11T18:48:55.612Z,-11.65
2022-12-11T18:51:27.508Z,-11.69
2022-12-11T18:53:56.355Z,-11.58
2022-12-11T18:56:26.966Z,-11.71
2022-12-11T18:58:56.110Z,-11.84
2022-12-11T19:01:27.787Z,-11.98
2022-12-11T19:04:05.353Z,-12.61
2022-12-11T19:06:36.954Z,-12.09
2022-12-11T19:09:07.880Z,-12.32
2022-12-11T19:11:39.654Z,-12.15
2022-12-11T19:14:10.143Z,-12.33
2022-12-11T19:16:41.899Z,-12.38
2022-12-11T19:19:16.848Z,-12.51
2022-12-11T19:21:46.795Z,-12.75
2022-12-11T19:24:22.103Z,-12.66
2022-12-11T19:26:51.992Z,-13.28
2022-12-11T19:29:23.732Z,-13.11
2022-12-11T19:31:52.633Z,-13.03
2022-12-11T19:34:21.537Z,-13.22
2022-12-11T19:36:50.291Z,-13.22
2022-12-11T19:39:20.536Z,-13.40
2022-12-11T19:41:50.026Z,-13.89
2022-12-11T19:44:19.207Z,-13.56
2022-12-11T19:46:48.885Z,-13.76
2022-12-11T19:49:17.862Z,-13.84
2022-12-11T19:51:46.835Z,-13.72
2022-12-11T19:54:17.318Z,-13.88
2022-12-11T19:56:46.664Z,-13.78
2022-12-11T19:59:17.601Z,-14.82
2022-12-11T20:01:48.928Z,-13.97
2022-12-11T20:04:19.116Z,-14.01
2022-12-11T20:06:49.149Z,-14.16
2022-12-11T20:09:18.867Z,-14.17
2022-12-11T20:11:48.660Z,-14.39
2022-12-11T20:14:24.416Z,-14.33
2022-12-11T20:17:13.985Z,-14.32
2022-12-11T20:19:44.113Z,-14.41
2022-12-11T20:22:13.530Z,-14.56
2022-12-11T20:24:42.472Z,-14.50
2022-12-11T20:27:13.266Z,-14.78
2022-12-11T20:29:42.164Z,-14.87
2022-12-11T20:32:12.265Z,-16.37
2022-12-11T20:34:42.218Z,-15.00
2022-12-11T20:37:11.700Z,-14.74
2022-12-11T20:39:40.989Z,-14.99
2022-12-11T20:42:11.682Z,-14.97
2022-12-11T20:44:44.187Z,-15.02
2022-12-11T20:47:22.268Z,-15.00
2022-12-11T20:49:53.331Z,-15.00
2022-12-11T20:52:22.314Z,-15.21
2022-12-11T20:54:51.006Z,-15.22
2022-12-11T20:57:20.122Z,-15.49
2022-12-11T20:59:50.242Z,-15.37
2022-12-11T21:02:19.126Z,-15.22
2022-12-11T21:04:48.164Z,-15.99
2022-12-11T21:07:16.887Z,-15.70
2022-12-11T21:09:45.813Z,-15.85
2022-12-11T21:12:14.742Z,-15.72
2022-12-11T21:14:43.632Z,-15.76
2022-12-11T21:17:12.648Z,-15.65
2022-12-11T21:19:41.515Z,-15.66
2022-12-11T21:22:11.187Z,-16.09
2022-12-11T21:24:40.181Z,-15.46
2022-12-11T21:27:09.035Z,-15.38
2022-12-11T21:29:38.380Z,-15.47
2022-12-11T21:32:07.650Z,-15.54
2022-12-11T21:34:38.651Z,-15.67
2022-12-11T21:37:07.609Z,-15.92
2022-12-11T21:39:39.678Z,-15.80
2022-12-11T21:42:08.697Z,-15.74
2022-12-11T21:45:31.437Z,-15.75
2022-12-11T21:47:28.904Z,-15.57
2022-12-11T21:49:57.733Z,-15.70
2022-12-11T21:52:26.429Z,-15.80
2022-12-11T21:54:55.501Z,-16.76
2022-12-11T21:57:26.977Z,-15.69
2022-12-11T21:59:55.630Z,-15.75
2022-12-11T22:02:24.288Z,-15.69
2022-12-11T22:04:52.933Z,-15.57
2022-12-11T22:07:23.253Z,-15.81
2022-12-11T22:09:51.938Z,-15.73
2022-12-11T22:12:27.652Z,-15.59
2022-12-11T22:14:56.876Z,-15.75
2022-12-11T22:17:25.763Z,-15.69
2022-12-11T22:19:55.024Z,-15.51
2022-12-11T22:22:24.148Z,-15.52
2022-12-11T22:24:52.736Z,-15.39
2022-12-11T22:27:24.269Z,-15.21
2022-12-11T22:29:55.463Z,-15.54
2022-12-11T22:32:24.727Z,-15.44
2022-12-11T22:34:53.796Z,-15.92
2022-12-11T22:37:22.677Z,-15.65
2022-12-11T22:39:51.708Z,-15.61
2022-12-11T22:42:20.457Z,-15.50
2022-12-11T22:44:49.386Z,-15.47
2022-12-11T22:47:18.558Z,-15.55
2022-12-11T22:49:47.683Z,-15.37
2022-12-11T22:52:16.318Z,-15.64
2022-12-11T22:54:45.265Z,-15.55
2022-12-11T22:57:15.094Z,-15.47
2022-12-11T22:59:44.045Z,-15.32
2022-12-11T23:02:12.811Z,-16.01
2022-12-11T23:04:41.697Z,-15.59
2022-12-11T23:07:10.727Z,-15.43
2022-12-11T23:09:39.829Z,-15.35
2022-12-11T23:12:09.435Z,-15.96
2022-12-11T23:14:38.246Z,-15.26
2022-12-11T23:17:06.851Z,-15.29
2022-12-11T23:19:35.588Z,-15.50
2022-12-11T23:22:04.814Z,-15.29
2022-12-11T23:24:33.532Z,-15.36
2022-12-11T23:27:02.574Z,-15.38
2022-12-11T23:29:31.574Z,-15.32
2022-12-11T23:32:00.297Z,-15.03
2022-12-11T23:34:29.446Z,-15.04
2022-12-11T23:36:58.560Z,-14.94
2022-12-11T23:39:27.309Z,-15.11
2022-12-11T23:41:56.133Z,-15.14
2022-12-11T23:44:24.714Z,-15.10
2022-12-11T23:46:53.312Z,-15.16
2022-12-11T23:49:22.012Z,-15.15
2022-12-11T23:51:50.869Z,-14.78
2022-12-11T23:54:19.676Z,-14.85
2022-12-11T23:56:48.724Z,-14.69
2022-12-11T23:59:17.395Z,-15.64
